Terminal Aerodrome Forecast
Issued by NWS

Home | Current Version | Previous Version | Text Only | Print | Product List | Glossary On
Versions: 1 2 3 4 5 6 7 8 9 10 11 12 13 14 15 16 17 18 19
701
FTUS43 KICT 280920 AAA
TAFRSL
TAF AMD
KRSL 280920Z 2809/2906 22017G25KT P6SM -TSRA BKN050CB
     FM281100 19015G22KT P6SM BKN060
     FM281400 19022G30KT P6SM SKC
     FM281800 21017KT P6SM BKN050=

USA.gov is the U.S. government's official web portal to all federal, state and local government web resources and services.